createdAt,value
2018-11-03T00:00:35.862Z,6.20
2018-11-03T00:03:03.691Z,6.73
2018-11-03T00:05:31.208Z,6.80
2018-11-03T00:07:58.716Z,5.90
2018-11-03T00:10:26.194Z,5.90
2018-11-03T00:12:53.833Z,6.60
2018-11-03T00:15:21.441Z,5.60
2018-11-03T00:17:49.211Z,6.73
2018-11-03T00:20:16.758Z,6.23
2018-11-03T00:22:45.210Z,6.60
2018-11-03T00:25:12.642Z,7.90
2018-11-03T00:27:40.173Z,7.83
2018-11-03T00:30:10.137Z,6.67
2018-11-03T00:32:39.394Z,8.03
2018-11-03T00:35:07.546Z,7.17
2018-11-03T00:37:35.464Z,6.50
2018-11-03T00:40:04.769Z,8.13
2018-11-03T00:42:33.052Z,6.93
2018-11-03T00:45:00.655Z,8.60
2018-11-03T00:47:28.263Z,7.13
2018-11-03T00:49:55.784Z,7.80
2018-11-03T00:52:23.280Z,9.70
2018-11-03T00:54:52.181Z,8.30
2018-11-03T00:57:19.682Z,7.53
2018-11-03T00:59:47.133Z,9.00
2018-11-03T01:02:14.597Z,9.23
2018-11-03T01:04:42.158Z,8.93
2018-11-03T01:07:10.454Z,8.10
2018-11-03T01:09:38.125Z,8.20
2018-11-03T01:12:05.864Z,8.37
2018-11-03T01:14:33.399Z,9.87
2018-11-03T01:17:00.928Z,8.90
2018-11-03T01:19:28.411Z,8.33
2018-11-03T01:21:56.045Z,8.77
2018-11-03T01:24:23.490Z,9.67
2018-11-03T01:26:51.220Z,8.73
2018-11-03T01:29:18.874Z,10.93
2018-11-03T01:31:46.256Z,10.20
2018-11-03T01:34:14.122Z,9.47
2018-11-03T01:36:41.705Z,9.87
2018-11-03T01:39:10.753Z,10.47
2018-11-03T01:41:39.399Z,12.00
2018-11-03T01:44:07.297Z,12.30
2018-11-03T01:46:34.924Z,11.50
2018-11-03T01:49:03.033Z,10.60
2018-11-03T01:51:30.730Z,11.53
2018-11-03T01:53:58.711Z,10.90
2018-11-03T01:56:26.719Z,10.53
2018-11-03T01:58:54.951Z,11.40
2018-11-03T02:01:22.489Z,9.33
2018-11-03T02:03:50.076Z,10.40
2018-11-03T02:06:17.482Z,9.63
2018-11-03T02:08:44.932Z,11.37
2018-11-03T02:11:13.167Z,9.80
2018-11-03T02:13:40.673Z,11.03
2018-11-03T02:16:08.255Z,9.63
2018-11-03T02:18:35.720Z,11.00
2018-11-03T02:21:06.500Z,9.80
2018-11-03T02:23:33.856Z,10.97
2018-11-03T02:26:01.381Z,11.03
2018-11-03T02:28:28.922Z,11.80
2018-11-03T02:30:57.100Z,11.10
2018-11-03T02:33:24.827Z,11.20
2018-11-03T02:35:53.017Z,11.80
2018-11-03T02:38:20.472Z,11.13
2018-11-03T02:40:47.891Z,10.90
2018-11-03T02:43:15.425Z,11.40
2018-11-03T02:45:42.936Z,11.30
2018-11-03T02:48:10.504Z,11.63
2018-11-03T02:50:38.006Z,11.00
2018-11-03T02:53:05.520Z,11.80
2018-11-03T02:55:33.286Z,12.40
2018-11-03T02:58:01.593Z,11.20
2018-11-03T03:00:29.015Z,13.73
2018-11-03T03:02:56.518Z,12.90
2018-11-03T03:05:24.107Z,11.77
2018-11-03T03:07:51.698Z,13.83
2018-11-03T03:10:19.171Z,13.40
2018-11-03T03:12:46.700Z,11.60
2018-11-03T03:15:14.387Z,12.50
2018-11-03T03:17:42.551Z,13.17
2018-11-03T03:20:11.305Z,12.17
2018-11-03T03:22:38.821Z,13.90
2018-11-03T03:25:08.047Z,14.13
2018-11-03T03:27:35.654Z,13.50
2018-11-03T03:30:03.233Z,13.90
2018-11-03T03:32:30.723Z,14.27
2018-11-03T03:34:58.409Z,14.00
2018-11-03T03:37:25.877Z,13.53
2018-11-03T03:39:53.522Z,13.63
2018-11-03T03:42:21.329Z,16.70
2018-11-03T03:44:48.784Z,14.40
2018-11-03T03:47:16.903Z,14.27
2018-11-03T03:49:44.411Z,14.17
2018-11-03T03:52:11.816Z,13.60
2018-11-03T03:54:39.397Z,14.80
2018-11-03T03:57:06.976Z,14.83
2018-11-03T03:59:34.472Z,14.07
2018-11-03T04:02:02.080Z,14.90
2018-11-03T04:04:29.805Z,14.40
2018-11-03T04:06:57.476Z,14.40
2018-11-03T04:09:25.440Z,15.13
2018-11-03T04:11:53.036Z,13.90
2018-11-03T04:14:20.505Z,15.53
2018-11-03T04:16:48.235Z,14.37
2018-11-03T04:19:15.857Z,13.40
2018-11-03T04:21:43.401Z,14.17
2018-11-03T04:24:11.074Z,14.60
2018-11-03T04:26:38.543Z,13.07
2018-11-03T04:29:06.762Z,15.07
2018-11-03T04:31:34.358Z,15.10
2018-11-03T04:34:01.805Z,14.00
2018-11-03T04:36:29.402Z,14.53
2018-11-03T04:38:56.980Z,14.87
2018-11-03T04:41:24.616Z,15.20
2018-11-03T04:43:52.333Z,15.43
2018-11-03T04:46:19.772Z,14.20
2018-11-03T04:48:47.304Z,16.13
2018-11-03T04:51:15.036Z,15.93
2018-11-03T04:53:43.953Z,14.27
2018-11-03T04:56:11.381Z,15.57
2018-11-03T04:58:38.956Z,14.57
2018-11-03T05:01:06.490Z,14.73
2018-11-03T05:03:33.983Z,15.40
2018-11-03T05:06:01.570Z,13.57
2018-11-03T05:08:29.793Z,15.97
2018-11-03T05:10:57.284Z,14.17
2018-11-03T05:13:24.844Z,14.50
2018-11-03T05:15:52.468Z,14.33
2018-11-03T05:18:20.600Z,13.77
2018-11-03T05:20:48.054Z,13.23
2018-11-03T05:23:16.241Z,12.70
2018-11-03T05:25:43.629Z,12.83
2018-11-03T05:28:11.111Z,13.30
2018-11-03T05:30:38.596Z,14.43
2018-11-03T05:33:06.013Z,16.33
2018-11-03T05:35:34.127Z,14.60
2018-11-03T05:38:01.698Z,13.47
2018-11-03T05:40:29.120Z,12.83
2018-11-03T05:42:56.670Z,14.20
2018-11-03T05:45:24.624Z,13.33
2018-11-03T05:47:52.003Z,13.77
2018-11-03T05:50:19.636Z,16.40
2018-11-03T05:52:47.263Z,16.73
2018-11-03T05:55:14.771Z,13.20
2018-11-03T05:57:42.426Z,14.63
2018-11-03T06:00:10.192Z,14.53
2018-11-03T06:02:38.254Z,14.87
2018-11-03T06:05:06.123Z,14.00
2018-11-03T06:07:33.642Z,14.33
2018-11-03T06:10:01.111Z,13.10
2018-11-03T06:12:28.631Z,14.90
2018-11-03T06:14:56.232Z,17.77
2018-11-03T06:17:24.653Z,14.90
2018-11-03T06:19:52.832Z,14.73
2018-11-03T06:22:20.757Z,14.57
2018-11-03T06:24:48.831Z,15.73
2018-11-03T06:27:16.435Z,15.50
2018-11-03T06:29:44.403Z,14.60
2018-11-03T06:32:12.061Z,16.10
2018-11-03T06:34:39.658Z,15.63
2018-11-03T06:37:07.099Z,13.60
2018-11-03T06:39:34.635Z,12.70
2018-11-03T06:42:02.984Z,15.07
2018-11-03T06:44:30.506Z,14.00
2018-11-03T06:46:58.056Z,14.17
2018-11-03T06:49:26.087Z,14.47
2018-11-03T06:51:53.572Z,15.43
2018-11-03T06:54:21.524Z,13.73
2018-11-03T06:56:49.161Z,13.90
2018-11-03T06:59:17.799Z,15.30
2018-11-03T07:01:45.335Z,14.07
2018-11-03T07:04:12.931Z,13.60
2018-11-03T07:06:41.974Z,14.87
2018-11-03T07:09:11.045Z,15.10
2018-11-03T07:16:26.933Z,15.27
2018-11-03T07:18:54.917Z,13.63
2018-11-03T07:21:22.613Z,15.27
2018-11-03T07:23:50.527Z,15.00
2018-11-03T07:26:18.090Z,13.80
2018-11-03T07:28:46.000Z,14.70
2018-11-03T07:31:13.772Z,13.50
2018-11-03T07:33:41.297Z,15.07
2018-11-03T07:36:08.996Z,15.20
2018-11-03T07:38:36.768Z,13.50
2018-11-03T07:41:04.554Z,14.70
2018-11-03T07:43:32.035Z,15.50
2018-11-03T07:45:59.843Z,14.10
2018-11-03T07:48:27.356Z,16.10
2018-11-03T07:50:55.055Z,15.20
2018-11-03T07:53:23.583Z,16.90
2018-11-03T07:55:51.284Z,15.50
2018-11-03T07:58:19.080Z,13.70
2018-11-03T08:00:46.704Z,13.70
2018-11-03T08:03:14.861Z,14.60
2018-11-03T08:05:42.536Z,14.33
2018-11-03T08:08:10.539Z,13.80
2018-11-03T08:10:38.144Z,15.90
2018-11-03T08:13:06.242Z,12.97
2018-11-03T08:15:33.897Z,14.70
2018-11-03T08:18:01.752Z,13.17
2018-11-03T08:20:29.417Z,13.33
2018-11-03T08:22:56.976Z,13.20
2018-11-03T08:25:24.618Z,13.70
2018-11-03T08:27:52.262Z,12.40
2018-11-03T08:30:19.993Z,13.60
2018-11-03T08:32:52.326Z,13.23
2018-11-03T08:35:19.975Z,15.63
2018-11-03T08:37:47.536Z,11.97
2018-11-03T08:40:14.999Z,12.10
2018-11-03T08:42:42.608Z,12.83
2018-11-03T08:45:10.663Z,12.10
2018-11-03T08:47:38.236Z,11.30
2018-11-03T08:50:07.517Z,11.67
2018-11-03T08:52:35.253Z,10.93
2018-11-03T08:55:02.864Z,10.70
2018-11-03T08:57:30.397Z,10.70
2018-11-03T08:59:58.770Z,11.57
2018-11-03T09:02:26.132Z,9.90
2018-11-03T09:04:53.819Z,9.60
2018-11-03T09:07:21.213Z,11.17
2018-11-03T09:09:48.772Z,9.60
2018-11-03T09:12:16.276Z,9.70
2018-11-03T09:14:43.788Z,9.93
2018-11-03T09:17:12.032Z,9.53
2018-11-03T09:19:39.666Z,11.20
2018-11-03T09:22:07.383Z,10.63
2018-11-03T09:24:34.781Z,8.57
2018-11-03T09:27:02.397Z,7.50
2018-11-03T09:29:30.075Z,8.17
2018-11-03T09:31:57.737Z,7.60
2018-11-03T09:34:25.362Z,7.33
2018-11-03T09:36:53.010Z,7.33
2018-11-03T09:39:20.747Z,6.60
2018-11-03T09:41:48.391Z,5.60
2018-11-03T09:44:15.957Z,6.70
2018-11-03T09:46:43.753Z,7.20
2018-11-03T09:49:11.380Z,8.07
2018-11-03T09:51:39.004Z,8.47
2018-11-03T09:54:07.568Z,8.83
2018-11-03T09:56:35.149Z,8.90
2018-11-03T09:59:03.226Z,9.73
2018-11-03T10:01:30.694Z,9.07
2018-11-03T10:03:58.376Z,8.70
2018-11-03T10:06:26.013Z,8.40
2018-11-03T10:08:53.445Z,9.93
2018-11-03T10:11:21.052Z,10.07
2018-11-03T10:13:48.704Z,9.10
2018-11-03T10:16:16.292Z,8.00
2018-11-03T10:18:43.671Z,8.70
2018-11-03T10:21:11.315Z,9.07
2018-11-03T10:23:38.805Z,9.20
2018-11-03T10:26:06.340Z,7.53
2018-11-03T10:28:33.738Z,6.83
2018-11-03T10:31:01.284Z,8.20
2018-11-03T10:33:29.057Z,8.00
2018-11-03T10:35:56.528Z,7.37
2018-11-03T10:38:23.966Z,6.33
2018-11-03T10:40:51.506Z,7.00
2018-11-03T10:43:19.094Z,7.17
2018-11-03T10:45:46.668Z,6.57
2018-11-03T10:48:14.071Z,11.07
2018-11-03T10:50:41.632Z,245.83
2018-11-03T10:53:09.123Z,235.80
2018-11-03T10:55:36.632Z,256.10
2018-11-03T10:58:04.076Z,346.30
2018-11-03T11:00:37.306Z,7.80
2018-11-03T11:03:10.492Z,7.70
2018-11-03T11:05:46.504Z,7.47
2018-11-03T11:08:21.487Z,9.10
2018-11-03T11:10:54.736Z,7.20
2018-11-03T11:13:23.954Z,6.43
2018-11-03T11:15:52.983Z,8.40
2018-11-03T11:18:20.737Z,7.10
2018-11-03T11:20:48.333Z,6.20
2018-11-03T11:23:15.993Z,7.10
2018-11-03T11:25:43.573Z,7.17
2018-11-03T11:28:11.102Z,6.40
2018-11-03T11:30:40.200Z,6.10
2018-11-03T11:33:09.152Z,8.00
2018-11-03T11:35:36.823Z,7.90
2018-11-03T11:38:05.234Z,6.43
2018-11-03T11:40:34.042Z,7.80
2018-11-03T11:43:01.835Z,6.90
2018-11-03T11:45:29.423Z,6.33
2018-11-03T11:47:56.882Z,7.00
2018-11-03T11:50:24.473Z,6.43
2018-11-03T11:52:51.952Z,6.07
2018-11-03T11:55:19.631Z,6.10
2018-11-03T11:57:47.515Z,5.90
2018-11-03T12:00:15.128Z,7.53
2018-11-03T12:02:42.647Z,6.53
2018-11-03T12:05:10.717Z,6.40
2018-11-03T12:07:38.246Z,6.50
2018-11-03T12:10:05.747Z,7.73
2018-11-03T12:12:33.276Z,5.33
2018-11-03T12:15:00.823Z,5.60
2018-11-03T12:17:28.479Z,5.30
2018-11-03T12:19:56.685Z,5.60
2018-11-03T12:22:24.240Z,4.87
2018-11-03T12:24:51.789Z,6.20
2018-11-03T12:27:19.344Z,6.80
2018-11-03T12:29:47.031Z,7.17
2018-11-03T12:32:14.520Z,6.67
2018-11-03T12:34:42.161Z,6.20
2018-11-03T12:37:09.581Z,8.43
2018-11-03T12:39:37.010Z,6.30
2018-11-03T12:42:04.752Z,6.30
2018-11-03T12:44:33.283Z,7.07
2018-11-03T12:47:01.146Z,8.93
2018-11-03T12:49:28.625Z,6.07
2018-11-03T12:51:56.357Z,6.40
2018-11-03T12:54:24.904Z,8.10
2018-11-03T12:56:52.495Z,5.90
2018-11-03T12:59:20.145Z,5.80
2018-11-03T13:01:48.009Z,6.60
2018-11-03T13:04:16.018Z,7.00
2018-11-03T13:06:43.745Z,7.30
2018-11-03T13:09:12.263Z,7.63
2018-11-03T13:11:41.343Z,10.93
2018-11-03T13:14:09.042Z,7.63
2018-11-03T13:16:36.882Z,5.70
2018-11-03T13:19:04.528Z,6.07
2018-11-03T13:21:32.108Z,6.00
2018-11-03T13:23:59.699Z,6.77
2018-11-03T13:26:27.523Z,7.77
2018-11-03T13:28:55.041Z,7.00
2018-11-03T13:31:23.225Z,6.97
2018-11-03T13:33:50.745Z,6.30
2018-11-03T13:36:18.184Z,5.93
2018-11-03T13:38:45.834Z,6.23
2018-11-03T13:41:15.026Z,6.70
2018-11-03T13:43:42.663Z,6.70
2018-11-03T13:46:10.152Z,7.63
2018-11-03T13:48:37.661Z,7.23
2018-11-03T13:51:05.837Z,7.20
2018-11-03T13:53:34.191Z,6.53
2018-11-03T13:56:01.614Z,8.93
2018-11-03T13:58:29.095Z,7.77
2018-11-03T14:00:56.702Z,8.07
2018-11-03T14:03:24.179Z,7.40
2018-11-03T14:05:51.572Z,6.83
2018-11-03T14:08:19.251Z,7.93
2018-11-03T14:10:46.696Z,7.20
2018-11-03T14:13:15.235Z,6.50
2018-11-03T14:15:42.914Z,6.10
2018-11-03T14:18:10.574Z,6.00
2018-11-03T14:20:38.118Z,5.90
2018-11-03T14:23:05.695Z,5.97
2018-11-03T14:25:33.139Z,5.33
2018-11-03T14:28:00.641Z,6.10
2018-11-03T14:30:29.484Z,6.67
2018-11-03T14:32:57.305Z,6.40
2018-11-03T14:35:25.672Z,6.90
2018-11-03T14:37:55.562Z,6.80
2018-11-03T14:40:24.393Z,7.50
2018-11-03T14:42:51.893Z,6.90
2018-11-03T14:45:19.349Z,6.63
2018-11-03T14:47:46.737Z,8.30
2018-11-03T14:50:14.169Z,6.30
2018-11-03T14:52:42.458Z,6.80
2018-11-03T14:55:10.929Z,6.60
2018-11-03T14:57:38.435Z,6.73
2018-11-03T15:00:10.907Z,6.93
2018-11-03T15:02:38.617Z,9.63
2018-11-03T15:05:07.291Z,8.73
2018-11-03T15:07:35.188Z,8.40
2018-11-03T15:10:02.918Z,6.50
2018-11-03T15:12:30.537Z,7.00
2018-11-03T15:14:58.200Z,7.73
2018-11-03T15:17:25.941Z,6.80
2018-11-03T15:19:54.152Z,7.13
2018-11-03T15:22:21.615Z,6.50
2018-11-03T15:24:49.365Z,6.83
2018-11-03T15:27:16.896Z,7.37
2018-11-03T15:29:44.523Z,6.97
2018-11-03T15:32:12.016Z,7.50
2018-11-03T15:34:39.618Z,7.23
2018-11-03T15:37:07.272Z,7.23
2018-11-03T15:39:36.598Z,8.70
2018-11-03T15:42:04.596Z,7.67
2018-11-03T15:44:32.008Z,7.43
2018-11-03T15:47:00.664Z,7.47
2018-11-03T15:49:28.664Z,7.57
2018-11-03T15:51:56.172Z,6.83
2018-11-03T15:54:23.780Z,8.47
2018-11-03T15:56:51.417Z,5.30
2018-11-03T15:59:19.564Z,6.70
2018-11-03T16:01:48.361Z,6.00
2018-11-03T16:04:15.788Z,7.90
2018-11-03T16:06:43.273Z,7.57
2018-11-03T16:09:12.072Z,7.10
2018-11-03T16:11:39.731Z,7.10
2018-11-03T16:14:07.955Z,6.70
2018-11-03T16:16:35.436Z,8.33
2018-11-03T16:19:04.620Z,7.50
2018-11-03T16:21:32.254Z,8.20
2018-11-03T16:24:00.041Z,7.50
2018-11-03T16:26:27.605Z,7.60
2018-11-03T16:28:56.127Z,7.90
2018-11-03T16:31:24.325Z,8.43
2018-11-03T16:33:51.823Z,8.80
2018-11-03T16:36:19.239Z,6.77
2018-11-03T16:38:47.734Z,6.73
2018-11-03T16:41:15.184Z,7.50
2018-11-03T16:43:42.805Z,9.50
2018-11-03T16:46:11.481Z,8.30
2018-11-03T16:48:39.386Z,8.20
2018-11-03T16:51:06.963Z,8.27
2018-11-03T16:53:34.502Z,8.60
2018-11-03T16:56:02.054Z,9.03
2018-11-03T16:58:29.513Z,9.80
2018-11-03T17:00:57.497Z,8.17
2018-11-03T17:03:25.227Z,8.77
2018-11-03T17:05:52.863Z,8.60
2018-11-03T17:08:20.459Z,8.53
2018-11-03T17:10:48.066Z,7.70
2018-11-03T17:13:16.305Z,7.90
2018-11-03T17:15:44.520Z,7.70
2018-11-03T17:18:12.111Z,7.50
2018-11-03T17:20:39.853Z,8.23
2018-11-03T17:23:07.452Z,8.17
2018-11-03T17:25:35.080Z,8.70
2018-11-03T17:28:02.834Z,9.00
2018-11-03T17:30:30.370Z,9.13
2018-11-03T17:32:57.924Z,9.00
2018-11-03T17:35:25.569Z,9.53
2018-11-03T17:37:53.649Z,9.00
2018-11-03T17:40:21.186Z,8.87
2018-11-03T17:42:49.013Z,10.30
2018-11-03T17:45:16.710Z,9.03
2018-11-03T17:47:44.405Z,8.90
2018-11-03T17:50:12.545Z,8.40
2018-11-03T17:52:40.969Z,9.60
2018-11-03T17:55:09.118Z,8.93
2018-11-03T17:57:36.933Z,9.27
2018-11-03T18:00:08.398Z,8.90
2018-11-03T18:02:35.953Z,8.90
2018-11-03T18:05:03.913Z,8.13
2018-11-03T18:07:31.470Z,9.30
2018-11-03T18:09:59.042Z,9.20
2018-11-03T18:12:26.576Z,8.50
2018-11-03T18:14:54.450Z,8.20
2018-11-03T18:17:22.012Z,7.90
2018-11-03T18:19:49.553Z,8.50
2018-11-03T18:22:17.118Z,9.27
2018-11-03T18:24:44.684Z,9.80
2018-11-03T18:27:12.106Z,9.40
2018-11-03T18:29:39.735Z,9.13
2018-11-03T18:32:07.157Z,9.73
2018-11-03T18:34:34.725Z,9.63
2018-11-03T18:37:02.233Z,9.87
2018-11-03T18:39:29.785Z,10.23
2018-11-03T18:41:57.385Z,8.80
2018-11-03T18:44:24.852Z,7.70
2018-11-03T18:46:52.421Z,8.63
2018-11-03T18:49:19.963Z,9.53
2018-11-03T18:51:47.663Z,8.40
2018-11-03T18:54:15.203Z,10.70
2018-11-03T18:56:42.729Z,10.57
2018-11-03T18:59:10.266Z,9.30
2018-11-03T19:01:37.860Z,8.03
2018-11-03T19:04:05.470Z,9.57
2018-11-03T19:06:33.220Z,9.93
2018-11-03T19:09:00.650Z,9.30
2018-11-03T19:11:28.197Z,10.33
2018-11-03T19:13:55.781Z,9.73
2018-11-03T19:16:23.719Z,11.60
2018-11-03T19:18:51.431Z,11.20
2018-11-03T19:21:18.926Z,10.30
2018-11-03T19:23:46.512Z,12.23
2018-11-03T19:26:13.995Z,12.37
2018-11-03T19:28:41.544Z,11.77
2018-11-03T19:31:09.064Z,11.17
2018-11-03T19:33:36.652Z,10.30
2018-11-03T19:36:05.073Z,11.43
2018-11-03T19:38:34.627Z,11.33
2018-11-03T19:41:02.792Z,9.87
2018-11-03T19:43:30.412Z,10.00
2018-11-03T19:45:58.577Z,10.27
2018-11-03T19:48:26.493Z,9.53
2018-11-03T19:50:54.587Z,9.00
2018-11-03T19:53:22.312Z,8.93
2018-11-03T19:55:50.115Z,11.53
2018-11-03T19:58:19.496Z,10.30
2018-11-03T20:00:47.088Z,9.40
2018-11-03T20:03:15.443Z,9.77
2018-11-03T20:05:43.453Z,11.43
2018-11-03T20:08:14.718Z,10.47
2018-11-03T20:10:43.001Z,10.60
2018-11-03T20:13:11.252Z,10.47
2018-11-03T20:15:45.352Z,11.40
2018-11-03T20:18:12.914Z,11.10
2018-11-03T20:20:41.060Z,10.60
2018-11-03T20:23:10.399Z,11.77
2018-11-03T20:25:38.223Z,10.80
2018-11-03T20:28:06.033Z,9.80
2018-11-03T20:30:36.068Z,12.07
2018-11-03T20:33:03.544Z,9.97
2018-11-03T20:35:31.806Z,10.83
2018-11-03T20:37:59.201Z,9.60
2018-11-03T20:40:26.945Z,13.37
2018-11-03T20:42:54.540Z,13.03
2018-11-03T20:45:23.015Z,13.47
2018-11-03T20:47:51.002Z,12.07
2018-11-03T20:50:18.898Z,12.30
2018-11-03T20:52:46.813Z,11.97
2018-11-03T20:55:14.504Z,11.90
2018-11-03T20:57:43.405Z,11.80
2018-11-03T21:00:13.171Z,13.07
2018-11-03T21:02:43.710Z,12.07
2018-11-03T21:05:11.917Z,12.43
2018-11-03T21:07:41.080Z,13.57
2018-11-03T21:10:08.899Z,11.97
2018-11-03T21:12:37.081Z,12.47
2018-11-03T21:15:05.066Z,13.03
2018-11-03T21:17:32.890Z,12.60
2018-11-03T21:20:02.457Z,12.20
2018-11-03T21:22:30.087Z,10.97
2018-11-03T21:24:57.634Z,11.83
2018-11-03T21:27:25.855Z,12.87
2018-11-03T21:29:54.217Z,12.03
2018-11-03T21:32:22.704Z,14.40
2018-11-03T21:34:50.689Z,13.20
2018-11-03T21:37:18.196Z,13.83
2018-11-03T21:39:46.455Z,14.30
2018-11-03T21:42:14.787Z,13.10
2018-11-03T21:44:42.813Z,14.83
2018-11-03T21:47:10.711Z,18.30
2018-11-03T21:49:43.831Z,17.80
2018-11-03T21:54:41.284Z,16.80
2018-11-03T21:57:11.180Z,14.43
2018-11-03T21:59:39.717Z,15.40
2018-11-03T22:02:08.864Z,12.63
2018-11-03T22:04:36.628Z,13.80
2018-11-03T22:07:04.335Z,14.20
2018-11-03T22:09:32.274Z,14.80
2018-11-03T22:12:00.593Z,13.23
2018-11-03T22:14:29.130Z,12.57
2018-11-03T22:16:56.717Z,12.80
2018-11-03T22:19:25.065Z,11.53
2018-11-03T22:21:52.793Z,15.20
2018-11-03T22:24:21.699Z,13.17
2018-11-03T22:26:51.180Z,12.10
2018-11-03T22:29:21.260Z,13.13
2018-11-03T22:31:50.331Z,13.37
2018-11-03T22:34:17.971Z,12.77
2018-11-03T22:36:46.111Z,15.00
2018-11-03T22:39:13.697Z,12.00
2018-11-03T22:41:42.190Z,12.03
2018-11-03T22:44:09.623Z,13.47
2018-11-03T22:46:37.987Z,11.10
2018-11-03T22:49:06.088Z,12.20
2018-11-03T22:51:33.775Z,13.07
2018-11-03T22:54:01.463Z,13.37
2018-11-03T22:56:28.999Z,13.57
2018-11-03T22:58:56.695Z,14.57
2018-11-03T23:01:24.905Z,13.67
2018-11-03T23:03:52.420Z,13.03
2018-11-03T23:06:19.820Z,14.50
2018-11-03T23:08:47.378Z,13.13
2018-11-03T23:11:15.453Z,11.43
2018-11-03T23:13:43.810Z,13.77
2018-11-03T23:16:11.223Z,13.47
2018-11-03T23:18:39.623Z,12.77
2018-11-03T23:21:07.176Z,12.63
2018-11-03T23:23:34.788Z,13.03
2018-11-03T23:26:02.880Z,13.30
2018-11-03T23:28:30.573Z,13.10
2018-11-03T23:30:58.757Z,12.80
2018-11-03T23:33:26.390Z,12.50
2018-11-03T23:35:54.037Z,11.93
2018-11-03T23:38:21.601Z,14.33
2018-11-03T23:40:49.285Z,13.60
2018-11-03T23:43:17.057Z,14.47
2018-11-03T23:45:44.542Z,13.27
2018-11-03T23:48:12.347Z,16.17
2018-11-03T23:50:39.935Z,12.57
2018-11-03T23:53:08.192Z,12.63
2018-11-03T23:55:35.689Z,12.70
2018-11-03T23:58:03.319Z,11.87
